createdAt,value
2018-09-23T00:04:34.465Z,7.43
2018-09-23T00:09:38.320Z,6.80
2018-09-23T00:14:42.128Z,7.97
2018-09-23T00:19:46.430Z,8.07
2018-09-23T00:24:50.481Z,7.80
2018-09-23T00:29:54.637Z,10.27
2018-09-23T00:34:58.458Z,9.07
2018-09-23T00:40:02.513Z,8.40
2018-09-23T00:45:06.414Z,8.07
2018-09-23T00:50:10.625Z,7.83
2018-09-23T00:55:14.685Z,10.27
2018-09-23T01:00:18.489Z,10.70
2018-09-23T01:05:22.581Z,11.20
2018-09-23T01:10:26.401Z,10.87
2018-09-23T01:15:31.417Z,10.00
2018-09-23T01:20:35.676Z,9.80
2018-09-23T01:25:39.809Z,9.10
2018-09-23T01:30:43.857Z,8.40
2018-09-23T01:35:47.931Z,8.93
2018-09-23T01:40:51.983Z,8.67
2018-09-23T01:45:55.797Z,8.40
2018-09-23T01:51:00.368Z,9.37
2018-09-23T01:56:04.420Z,8.33
2018-09-23T02:01:08.465Z,7.93
2018-09-23T02:06:12.296Z,7.80
2018-09-23T02:11:16.362Z,7.27
2018-09-23T02:16:20.424Z,7.90
2018-09-23T02:21:25.188Z,5.87
2018-09-23T02:26:29.081Z,5.20
2018-09-23T02:31:33.433Z,5.67
2018-09-23T02:36:37.528Z,4.33
2018-09-23T02:41:41.608Z,5.00
2018-09-23T02:46:45.431Z,5.58
2018-09-23T02:51:49.280Z,4.57
2018-09-23T02:56:53.370Z,3.90
2018-09-23T03:01:57.165Z,4.60
2018-09-23T03:07:01.285Z,5.80
2018-09-23T03:12:05.422Z,5.97
2018-09-23T03:17:09.373Z,5.03
2018-09-23T03:22:13.498Z,5.43
2018-09-23T03:27:17.630Z,3.60
2018-09-23T03:32:22.226Z,2.87
2018-09-23T03:37:26.102Z,4.33
2018-09-23T03:42:31.078Z,3.30
2018-09-23T03:47:35.270Z,3.70
2018-09-23T03:52:39.370Z,2.40
2018-09-23T03:57:43.442Z,2.30
2018-09-23T04:02:47.534Z,2.10
2018-09-23T04:07:51.386Z,2.20
2018-09-23T04:12:55.491Z,2.33
2018-09-23T04:17:59.578Z,2.37
2018-09-23T04:23:03.705Z,2.80
2018-09-23T04:28:07.561Z,2.20
2018-09-23T04:33:11.694Z,2.10
2018-09-23T04:38:15.794Z,3.03
2018-09-23T04:43:19.878Z,2.10
2018-09-23T04:48:24.090Z,2.20
2018-09-23T04:53:27.966Z,1.90
2018-09-23T04:58:32.067Z,1.90
2018-09-23T05:03:36.149Z,1.80
2018-09-23T05:08:40.348Z,1.83
2018-09-23T05:13:45.090Z,1.70
2018-09-23T05:18:49.030Z,1.67
2018-09-23T05:23:53.118Z,1.80
2018-09-23T05:28:57.242Z,1.67
2018-09-23T05:34:01.339Z,1.67
2018-09-23T05:39:08.583Z,1.77
2018-09-23T05:44:12.711Z,1.73
2018-09-23T05:49:16.803Z,1.80
2018-09-23T05:54:20.624Z,2.50
2018-09-23T05:59:24.869Z,2.47
2018-09-23T06:04:28.957Z,2.27
2018-09-23T06:09:32.798Z,2.50
2018-09-23T06:14:36.877Z,2.40
2018-09-23T06:19:40.741Z,3.50
2018-09-23T06:24:44.820Z,2.40
2018-09-23T06:29:48.666Z,3.17
2018-09-23T06:34:52.574Z,1.90
2018-09-23T06:39:56.709Z,1.50
2018-09-23T06:45:00.851Z,1.50
2018-09-23T06:50:05.108Z,1.50
2018-09-23T06:55:12.015Z,4.23
2018-09-23T07:00:16.126Z,2.43
2018-09-23T07:05:20.246Z,2.17
2018-09-23T07:10:24.597Z,2.20
2018-09-23T07:15:28.598Z,2.42
2018-09-23T07:20:32.673Z,2.20
2018-09-23T07:25:36.912Z,1.53
2018-09-23T07:30:41.074Z,2.00
2018-09-23T07:35:45.252Z,1.27
2018-09-23T07:40:49.426Z,0.90
2018-09-23T07:45:53.606Z,1.50
2018-09-23T07:50:57.790Z,16.23
2018-09-23T07:56:01.986Z,1.87
2018-09-23T08:01:06.041Z,2.00
2018-09-23T08:06:10.054Z,1.77
2018-09-23T08:11:14.223Z,1.83
2018-09-23T08:16:18.372Z,1.70
2018-09-23T08:21:22.594Z,1.70
2018-09-23T08:26:26.853Z,1.90
2018-09-23T08:31:31.362Z,1.90
2018-09-23T08:36:35.540Z,2.20
2018-09-23T08:41:39.849Z,1.93
2018-09-23T08:46:44.618Z,1.83
2018-09-23T08:51:48.783Z,3.53
2018-09-23T08:56:52.626Z,1.70
2018-09-23T09:01:56.774Z,1.90
2018-09-23T09:07:00.881Z,1.97
2018-09-23T09:12:04.993Z,1.40
2018-09-23T09:17:09.194Z,1.47
2018-09-23T09:22:13.316Z,2.13
2018-09-23T09:27:17.454Z,1.70
2018-09-23T09:32:21.584Z,1.53
2018-09-23T09:37:25.729Z,1.83
2018-09-23T09:42:29.596Z,1.50
2018-09-23T09:47:33.698Z,1.70
2018-09-23T09:52:37.831Z,1.67
2018-09-23T09:57:41.656Z,1.40
2018-09-23T10:02:45.746Z,1.60
2018-09-23T10:07:50.417Z,1.80
2018-09-23T10:12:54.526Z,2.20
2018-09-23T10:17:58.619Z,2.13
2018-09-23T10:23:02.506Z,1.70
2018-09-23T10:28:06.578Z,1.97
2018-09-23T10:33:10.509Z,1.60
2018-09-23T10:38:14.574Z,1.70
2018-09-23T10:43:18.674Z,1.80
2018-09-23T10:48:23.220Z,1.73
2018-09-23T10:53:27.697Z,1.60
2018-09-23T10:58:31.769Z,2.00
2018-09-23T11:03:35.908Z,1.90
2018-09-23T11:08:39.790Z,2.03
2018-09-23T11:13:43.865Z,2.40
2018-09-23T11:18:47.940Z,2.80
2018-09-23T11:23:52.050Z,2.93
2018-09-23T11:28:56.280Z,3.30
2018-09-23T11:34:00.097Z,3.90
2018-09-23T11:39:06.094Z,4.10
2018-09-23T11:44:10.290Z,3.50
2018-09-23T11:49:14.369Z,4.17
2018-09-23T11:54:18.447Z,4.73
2018-09-23T11:59:23.121Z,3.77
2018-09-23T12:04:27.233Z,3.10
2018-09-23T12:09:31.295Z,1.80
2018-09-23T12:14:35.369Z,2.10
2018-09-23T12:19:39.506Z,2.73
2018-09-23T12:24:43.389Z,4.20
2018-09-23T12:29:47.503Z,3.83
2018-09-23T12:34:51.695Z,3.53
2018-09-23T12:39:55.864Z,3.00
2018-09-23T12:44:59.946Z,2.80
2018-09-23T12:50:04.251Z,2.37
2018-09-23T12:55:08.465Z,2.20
2018-09-23T13:00:13.529Z,2.33
2018-09-23T13:05:17.645Z,3.23
2018-09-23T13:10:21.512Z,1.63
2018-09-23T13:15:25.639Z,1.30
2018-09-23T13:20:29.738Z,1.20
2018-09-23T13:25:34.137Z,1.53
2018-09-23T13:30:38.330Z,3.03
2018-09-23T13:35:42.415Z,1.10
2018-09-23T13:40:46.509Z,2.63
2018-09-23T13:45:50.920Z,1.20
2018-09-23T13:50:55.183Z,1.10
2018-09-23T13:55:59.080Z,1.13
2018-09-23T14:01:03.152Z,2.30
2018-09-23T14:06:07.318Z,1.80
2018-09-23T14:11:11.569Z,2.60
2018-09-23T14:16:15.425Z,3.13
2018-09-23T14:21:19.589Z,4.27
2018-09-23T14:26:24.342Z,3.70
2018-09-23T14:31:28.427Z,1.80
2018-09-23T14:36:32.636Z,2.00
2018-09-23T14:41:36.818Z,3.17
2018-09-23T14:46:40.653Z,1.60
2018-09-23T14:51:44.806Z,1.70
2018-09-23T14:56:48.879Z,1.60
2018-09-23T15:01:53.006Z,2.00
2018-09-23T15:06:56.873Z,1.90
2018-09-23T15:12:01.422Z,1.80
2018-09-23T15:17:05.519Z,2.47
2018-09-23T15:22:09.788Z,3.37
2018-09-23T15:27:14.754Z,3.90
2018-09-23T15:32:18.881Z,3.67
2018-09-23T15:37:23.144Z,4.07
2018-09-23T15:42:27.125Z,4.33
2018-09-23T15:47:30.909Z,4.30
2018-09-23T15:52:35.313Z,4.10
2018-09-23T15:57:39.542Z,4.00
2018-09-23T16:02:43.397Z,4.73
2018-09-23T16:07:47.523Z,4.27
2018-09-23T16:12:51.622Z,4.00
2018-09-23T16:17:55.763Z,5.13
2018-09-23T16:22:59.858Z,3.50
2018-09-23T16:28:03.956Z,3.50
2018-09-23T16:33:08.117Z,5.47
2018-09-23T16:38:11.978Z,5.00
2018-09-23T16:43:16.080Z,4.17
2018-09-23T16:48:20.666Z,3.87
2018-09-23T16:53:24.844Z,4.57
2018-09-23T16:58:28.955Z,4.53
2018-09-23T17:03:33.041Z,4.23
2018-09-23T17:08:37.269Z,4.77
2018-09-23T17:13:41.357Z,6.37
2018-09-23T17:18:45.653Z,7.25
2018-09-23T17:23:50.110Z,6.47
2018-09-23T17:28:54.561Z,5.57
2018-09-23T17:33:58.754Z,5.17
2018-09-23T17:39:03.013Z,5.57
2018-09-23T17:44:09.440Z,6.80
2018-09-23T17:49:13.621Z,6.87
2018-09-23T17:54:17.814Z,7.07
2018-09-23T17:59:21.678Z,6.43
2018-09-23T18:04:26.151Z,5.53
2018-09-23T18:09:30.276Z,6.53
2018-09-23T18:14:34.434Z,7.73
2018-09-23T18:19:38.594Z,6.80
2018-09-23T18:24:42.694Z,6.40
2018-09-23T18:29:47.503Z,5.77
2018-09-23T18:34:51.277Z,7.43
2018-09-23T18:39:55.306Z,6.10
2018-09-23T18:44:59.427Z,5.62
2018-09-23T18:50:03.527Z,6.62
2018-09-23T18:55:12.935Z,7.58
2018-09-23T19:00:16.798Z,7.00
2018-09-23T19:05:20.862Z,12.03
2018-09-23T19:10:24.774Z,12.60
2018-09-23T19:15:28.659Z,14.17
2018-09-23T19:20:32.625Z,11.97
2018-09-23T19:25:36.525Z,12.10
2018-09-23T19:30:40.580Z,8.63
2018-09-23T19:35:44.420Z,9.50
2018-09-23T19:40:48.257Z,8.17
2018-09-23T19:45:52.098Z,7.97
2018-09-23T19:50:56.651Z,8.80
2018-09-23T19:56:00.510Z,8.50
2018-09-23T20:01:04.557Z,7.17
2018-09-23T20:06:08.593Z,6.90
2018-09-23T20:11:12.431Z,7.70
2018-09-23T20:16:16.268Z,9.13
2018-09-23T20:21:20.110Z,7.43
2018-09-23T20:26:24.250Z,8.20
2018-09-23T20:31:28.125Z,6.97
2018-09-23T20:36:32.255Z,7.17
2018-09-23T20:41:36.116Z,5.03
2018-09-23T20:46:40.289Z,4.60
2018-09-23T20:51:44.765Z,4.50
2018-09-23T20:56:48.746Z,5.37
2018-09-23T21:01:53.151Z,4.97
2018-09-23T21:06:57.081Z,4.07
2018-09-23T21:12:00.944Z,3.73
2018-09-23T21:17:04.832Z,3.83
2018-09-23T21:22:08.820Z,4.23
2018-09-23T21:27:12.673Z,4.70
2018-09-23T21:32:16.541Z,4.67
2018-09-23T21:37:20.490Z,4.07
2018-09-23T21:42:24.399Z,6.53
2018-09-23T21:47:28.246Z,5.73
2018-09-23T21:52:32.112Z,7.07
2018-09-23T21:57:35.981Z,7.53
2018-09-23T22:02:40.136Z,11.80
2018-09-23T22:07:44.248Z,8.93
2018-09-23T22:12:48.355Z,12.23
2018-09-23T22:17:52.219Z,12.43
2018-09-23T22:22:56.589Z,11.23
2018-09-23T22:28:00.464Z,11.17
2018-09-23T22:33:04.333Z,10.50
2018-09-23T22:38:08.253Z,11.28
2018-09-23T22:43:12.121Z,11.97
2018-09-23T22:48:16.233Z,11.43
2018-09-23T22:53:20.089Z,11.30
2018-09-23T22:58:24.263Z,12.60
2018-09-23T23:03:28.125Z,13.47
2018-09-23T23:08:32.221Z,13.57
2018-09-23T23:13:36.068Z,13.93
2018-09-23T23:18:40.250Z,13.30
2018-09-23T23:23:44.101Z,13.77
2018-09-23T23:28:48.198Z,14.43
2018-09-23T23:33:52.457Z,14.47
2018-09-23T23:38:56.300Z,15.27
2018-09-23T23:44:00.170Z,14.67
2018-09-23T23:49:04.046Z,14.80
2018-09-23T23:54:08.048Z,15.83
2018-09-23T23:59:12.276Z,18.23
